Terminal Aerodrome Forecast
Issued by NWS Boston, MA

Current Version | Previous Version | Text Only | Print | Product List | Glossary On
Versions: 1 2 3 4 5 6 7 8 9 10 11 12 13 14 15 16 17 18 19 20 21 22 23 24 25 26 27 28 29 30 31 32 33 34 35 36 37 38 39 40 41
000 FTUS41 KBOX 280257 AAB TAFPVD TAF AMD KPVD 280257Z 2803/2824 20005KT 6SM BR SCT015 FM280600 19005KT 4SM BR BKN012 FM280800 18006KT 3SM -SHRA BR OVC008 FM281500 19011KT P6SM BKN015 FM281800 20014KT P6SM VCSH BKN050 FM282300 24011KT P6SM BKN070=

USA.gov is the U.S. government's official web portal to all federal, state and local government web resources and services.